Terminal Aerodrome Forecast
Issued by NWS

Home | Current Version | Previous Version | Text Only | Print | Product List | Glossary Off
Versions: 1 2 3 4 5 6 7 8 9 10 11 12 13 14 15 16 17 18 19 20 21 22 23 24 25 26 27 28

000
FTUS45 KGGW 040540 AAB
TAFOLF
TAF AMD
KOLF 040540Z 0406/0506 02017G25KT P6SM VCTS SCT070CB BKN120
     FM040900 04014KT P6SM VCSH SCT090 BKN150
     FM041500 06013G19KT P6SM SCT040 BKN100
     FM050100 07009KT P6SM FEW050=

USA.gov is the U.S. government's official web portal to all federal, state and local government web resources and services.